Time;durP1;ratioP1;P1;durP2;ratioP2;P2;SDS_P1;SDS_P2;PMS_P1;PMS_P2;Temp;Humidity;BMP_temperature;BMP_pressure;BME280_temperature;BME280_humidity;BME280_pressure;Samples;Min_cycle;Max_cycle;Signal;HPM_P1;HPM_P2
2022/07/20 00:01:41;;;;;;;6.33;5.73;;;23.60;57.00;;;;;;5012097;28;20194;-55
2022/07/20 00:04:07;;;;;;;6.50;5.80;;;23.60;57.30;;;;;;5011974;28;20187;-55
2022/07/20 00:06:32;;;;;;;6.20;5.60;;;23.50;57.60;;;;;;5011092;28;20613;-56
2022/07/20 00:11:42;;;;;;;6.80;5.50;;;23.40;58.00;;;;;;5009938;28;20213;-55
2022/07/20 00:14:08;;;;;;;6.20;5.70;;;23.30;58.40;;;;;;5008601;28;20799;-56
2022/07/20 00:16:35;;;;;;;7.33;6.40;;;23.20;58.60;;;;;;5011565;28;20203;-56
2022/07/20 00:19:01;;;;;;;7.00;6.43;;;23.20;59.00;;;;;;5011328;28;20191;-55
2022/07/20 00:21:27;;;;;;;7.00;6.33;;;23.10;58.90;;;;;;5010743;28;20870;-55
2022/07/20 00:23:52;;;;;;;6.93;5.70;;;23.10;59.10;;;;;;5011339;28;20632;-56
2022/07/20 00:26:18;;;;;;;7.30;6.10;;;23.00;59.30;;;;;;5009903;28;20528;-56
2022/07/20 00:28:44;;;;;;;7.63;6.27;;;23.00;59.70;;;;;;5004470;28;20184;-55
2022/07/20 00:31:09;;;;;;;7.23;5.70;;;23.00;59.90;;;;;;5011878;28;20222;-55
2022/07/20 00:33:35;;;;;;;6.33;5.73;;;22.90;59.90;;;;;;5012376;28;20283;-56
2022/07/20 00:36:02;;;;;;;6.87;6.17;;;22.80;60.40;;;;;;5009687;28;20671;-55
2022/07/20 00:38:27;;;;;;;6.53;5.87;;;22.80;60.60;;;;;;5004461;28;20434;-56
2022/07/20 00:40:53;;;;;;;6.20;5.60;;;22.80;60.80;;;;;;5009670;28;20461;-56
2022/07/20 00:43:18;;;;;;;7.50;6.70;;;22.80;60.90;;;;;;5011397;28;20221;-56
2022/07/20 00:45:45;;;;;;;6.63;5.10;;;22.80;61.10;;;;;;5011696;28;20639;-55
2022/07/20 00:48:11;;;;;;;6.70;6.00;;;22.70;61.30;;;;;;5011199;28;20195;-55
2022/07/20 00:50:38;;;;;;;6.30;5.67;;;22.60;61.60;;;;;;5008717;28;20465;-55
2022/07/20 00:53:04;;;;;;;6.37;5.83;;;22.60;62.10;;;;;;5011705;28;20957;-55
2022/07/20 00:55:30;;;;;;;7.00;5.67;;;22.50;62.10;;;;;;5009309;28;20445;-55
2022/07/20 00:57:56;;;;;;;6.70;6.10;;;22.50;62.30;;;;;;5008571;28;21174;-55
2022/07/20 01:00:21;;;;;;;7.03;5.77;;;22.50;62.50;;;;;;5010656;28;20462;-55
2022/07/20 01:02:47;;;;;;;9.60;6.17;;;22.40;62.70;;;;;;5011379;28;20212;-55
2022/07/20 01:05:15;;;;;;;6.63;6.03;;;22.40;63.00;;;;;;5024660;28;20567;-55
2022/07/20 01:07:46;;;;;;;9.40;5.80;;;22.30;63.40;;;;;;5011096;28;20199;-55
2022/07/20 01:10:13;;;;;;;7.20;6.07;;;22.30;63.60;;;;;;5010633;28;20494;-55
2022/07/20 01:12:42;;;;;;;6.90;5.90;;;22.30;63.90;;;;;;5011162;28;20445;-55
2022/07/20 01:15:08;;;;;;;6.40;5.90;;;22.30;64.20;;;;;;5011036;28;20494;-55
2022/07/20 01:17:34;;;;;;;5.90;5.40;;;22.20;64.30;;;;;;5010398;28;20453;-56
2022/07/20 01:19:59;;;;;;;6.30;5.80;;;22.20;65.80;;;;;;5009025;28;20202;-56
2022/07/20 01:22:25;;;;;;;6.27;5.77;;;22.10;65.30;;;;;;5011136;28;20212;-55
2022/07/20 01:24:50;;;;;;;6.50;5.90;;;22.10;65.60;;;;;;5010225;28;20189;-56
2022/07/20 01:27:16;;;;;;;7.37;5.90;;;22.00;66.00;;;;;;5010591;28;20198;-56
2022/07/20 01:29:42;;;;;;;6.40;5.80;;;22.00;66.60;;;;;;5009598;28;20183;-56
2022/07/20 01:32:07;;;;;;;6.87;6.27;;;21.90;67.00;;;;;;5011772;28;20667;-56
2022/07/20 01:34:33;;;;;;;7.50;5.50;;;22.00;67.10;;;;;;5009529;28;20570;-56
2022/07/20 01:36:58;;;;;;;6.77;6.07;;;21.90;67.40;;;;;;5010005;28;20286;-56
2022/07/20 01:39:24;;;;;;;5.83;5.33;;;21.90;67.70;;;;;;5012935;28;20651;-56
2022/07/20 01:41:52;;;;;;;6.40;5.80;;;21.80;68.10;;;;;;5011647;28;20213;-56
2022/07/20 01:44:21;;;;;;;6.53;5.93;;;21.80;68.50;;;;;;5010831;28;20171;-56
2022/07/20 01:46:48;;;;;;;8.50;5.33;;;21.80;69.30;;;;;;5011142;28;20489;-56
2022/07/20 01:49:14;;;;;;;6.60;6.00;;;21.90;69.20;;;;;;5011836;28;20442;-56
2022/07/20 01:51:40;;;;;;;8.60;6.30;;;21.90;69.30;;;;;;5009194;28;20445;-56
2022/07/20 01:54:06;;;;;;;10.07;6.03;;;21.80;69.10;;;;;;5010482;28;20460;-56
2022/07/20 01:56:31;;;;;;;6.97;6.37;;;21.90;69.10;;;;;;5007682;28;20199;-56
2022/07/20 01:58:57;;;;;;;6.67;6.07;;;21.80;69.50;;;;;;5008281;28;20181;-56
2022/07/20 02:01:22;;;;;;;9.40;7.80;;;21.70;70.20;;;;;;5010218;28;20217;-56
2022/07/20 02:03:48;;;;;;;7.30;6.60;;;21.70;70.70;;;;;;5010305;28;20602;-56
2022/07/20 02:06:14;;;;;;;6.63;5.60;;;21.70;70.60;;;;;;5009374;28;20202;-55
2022/07/20 02:08:39;;;;;;;6.80;5.60;;;21.60;70.80;;;;;;5010314;28;20233;-55
2022/07/20 02:11:05;;;;;;;6.27;5.63;;;21.60;71.10;;;;;;5010384;28;20183;-55
2022/07/20 02:13:32;;;;;;;6.30;5.70;;;21.60;71.30;;;;;;5009417;28;20621;-55
2022/07/20 02:16:15;;;;;;;8.00;6.07;;;21.50;71.50;;;;;;5010206;28;20456;-55
2022/07/20 02:18:48;;;;;;;7.10;6.40;;;21.40;71.90;;;;;;5007499;28;20480;-55
2022/07/20 02:21:16;;;;;;;7.67;6.23;;;21.30;72.30;;;;;;5007345;28;20187;-55
2022/07/20 02:23:42;;;;;;;7.50;6.33;;;21.10;72.80;;;;;;5010373;28;20878;-55
2022/07/20 02:26:07;;;;;;;6.53;5.93;;;21.30;73.40;;;;;;5009575;28;20457;-55
2022/07/20 02:28:33;;;;;;;7.07;6.10;;;21.30;73.70;;;;;;5009244;28;20461;-55
2022/07/20 02:30:59;;;;;;;6.77;5.47;;;21.20;74.20;;;;;;5009914;28;20469;-55
2022/07/20 02:33:24;;;;;;;6.17;5.60;;;21.20;75.70;;;;;;5005143;28;20183;-55
2022/07/20 02:35:50;;;;;;;6.80;6.20;;;21.20;74.40;;;;;;5009339;28;20209;-56
2022/07/20 02:38:16;;;;;;;11.37;6.27;;;21.20;74.50;;;;;;5007169;28;20199;-55
2022/07/20 02:40:41;;;;;;;6.45;5.85;;;21.10;74.90;;;;;;5015641;28;20552;-55
2022/07/20 02:43:07;;;;;;;7.23;6.50;;;21.10;75.50;;;;;;5008959;28;20215;-55
2022/07/20 02:45:33;;;;;;;6.70;6.10;;;21.00;76.20;;;;;;5006542;28;20187;-55
2022/07/20 02:48:02;;;;;;;7.63;5.83;;;21.00;76.40;;;;;;5008341;28;20262;-55
2022/07/20 02:50:30;;;;;;;8.27;5.72;;;20.90;77.10;;;;;;5009507;28;20237;-55
2022/07/20 02:52:56;;;;;;;9.43;6.32;;;20.80;77.60;;;;;;5009661;28;20322;-56
2022/07/20 02:55:21;;;;;;;6.37;5.70;;;20.80;78.00;;;;;;5010535;28;20273;-55
2022/07/20 02:57:47;;;;;;;7.30;6.60;;;20.70;78.60;;;;;;5007065;28;20231;-55
2022/07/20 03:00:13;;;;;;;7.93;6.13;;;20.70;78.70;;;;;;5006900;28;20824;-55
2022/07/20 03:02:38;;;;;;;7.72;6.45;;;20.70;79.50;;;;;;5009488;28;20199;-56
2022/07/20 03:05:05;;;;;;;6.57;5.97;;;20.60;79.70;;;;;;5009472;28;20538;-55
2022/07/20 03:07:30;;;;;;;7.10;6.50;;;20.60;80.20;;;;;;5009503;28;20268;-55
2022/07/20 03:09:56;;;;;;;9.23;6.90;;;20.50;80.70;;;;;;5009947;28;20644;-56
2022/07/20 03:12:22;;;;;;;6.67;6.07;;;20.50;81.00;;;;;;5010799;28;20190;-56
2022/07/20 03:14:48;;;;;;;7.60;6.07;;;20.50;81.40;;;;;;5012770;28;20187;-56
2022/07/20 03:17:13;;;;;;;5.95;5.45;;;20.50;81.50;;;;;;5012683;28;20295;-56
2022/07/20 03:19:39;;;;;;;6.10;5.53;;;20.50;81.90;;;;;;5012349;28;20274;-55
2022/07/20 03:22:05;;;;;;;7.83;6.43;;;20.60;82.40;;;;;;5012264;28;20199;-56
2022/07/20 03:24:30;;;;;;;7.20;6.47;;;20.50;82.00;;;;;;5013384;28;20179;-56
2022/07/20 03:26:56;;;;;;;6.50;5.90;;;20.60;82.20;;;;;;5012722;28;20352;-56
2022/07/20 03:29:22;;;;;;;8.37;5.93;;;20.60;82.90;;;;;;5011926;28;20208;-56
2022/07/20 03:31:47;;;;;;;7.13;6.00;;;20.60;82.80;;;;;;5012956;28;20266;-55
2022/07/20 03:34:13;;;;;;;6.70;5.77;;;20.50;82.80;;;;;;5027952;28;20183;-55
2022/07/20 03:36:38;;;;;;;8.27;6.80;;;20.50;83.10;;;;;;5010832;28;20252;-55
2022/07/20 03:39:04;;;;;;;6.20;5.70;;;20.50;83.40;;;;;;5012314;28;20190;-56
2022/07/20 03:41:29;;;;;;;7.63;6.93;;;20.40;83.70;;;;;;5009016;28;20183;-56
2022/07/20 03:43:55;;;;;;;7.37;6.63;;;20.30;84.10;;;;;;5012250;28;20628;-55
2022/07/20 03:46:20;;;;;;;6.80;6.10;;;20.30;84.60;;;;;;5012969;28;20194;-56
2022/07/20 03:48:46;;;;;;;7.27;6.53;;;20.30;84.70;;;;;;5013152;28;20271;-55
2022/07/20 03:51:11;;;;;;;6.83;6.23;;;20.30;85.00;;;;;;5011476;28;20194;-55
2022/07/20 03:53:37;;;;;;;7.40;6.23;;;20.20;85.50;;;;;;5012464;28;20187;-55
2022/07/20 03:56:03;;;;;;;6.90;6.30;;;20.30;85.80;;;;;;5012068;28;20277;-55
2022/07/20 03:58:28;;;;;;;7.20;6.60;;;20.20;85.80;;;;;;5011835;28;20962;-56
2022/07/20 04:00:54;;;;;;;6.83;6.23;;;20.20;86.20;;;;;;5004544;28;20438;-55
2022/07/20 04:03:19;;;;;;;6.77;6.17;;;20.30;86.80;;;;;;5012459;28;20700;-55
2022/07/20 04:05:45;;;;;;;9.40;7.50;;;20.30;86.40;;;;;;5010827;28;20233;-55
2022/07/20 04:08:10;;;;;;;7.00;5.77;;;20.20;86.90;;;;;;5011716;28;20207;-56
2022/07/20 04:10:36;;;;;;;7.47;6.67;;;20.20;87.20;;;;;;5010401;28;20202;-56
2022/07/20 04:13:05;;;;;;;13.43;6.47;;;20.10;87.50;;;;;;5022073;28;20248;-56
2022/07/20 04:15:31;;;;;;;8.48;6.20;;;20.10;87.70;;;;;;5008742;28;20194;-55
2022/07/20 04:17:57;;;;;;;6.90;6.20;;;20.10;88.20;;;;;;5010596;28;20571;-55
2022/07/20 04:20:22;;;;;;;7.97;6.50;;;20.20;88.60;;;;;;5010225;28;20190;-56
2022/07/20 04:22:48;;;;;;;6.97;6.33;;;20.20;88.60;;;;;;5009876;28;20215;-56
2022/07/20 04:25:14;;;;;;;7.50;6.80;;;20.20;88.60;;;;;;5009389;28;20179;-55
2022/07/20 04:27:39;;;;;;;7.27;6.50;;;20.20;88.40;;;;;;5011076;28;20217;-56
2022/07/20 04:30:06;;;;;;;8.30;6.80;;;20.30;88.80;;;;;;5009529;28;20192;-55
2022/07/20 04:32:31;;;;;;;7.05;5.72;;;20.30;88.90;;;;;;5005142;28;20210;-56
2022/07/20 04:34:57;;;;;;;6.60;6.00;;;20.40;88.50;;;;;;5010289;28;20210;-56
2022/07/20 04:37:22;;;;;;;8.10;5.80;;;20.40;89.30;;;;;;5011700;28;20675;-56
2022/07/20 04:39:48;;;;;;;7.40;6.60;;;20.50;88.80;;;;;;5011446;28;20193;-56
2022/07/20 04:42:14;;;;;;;10.13;6.60;;;20.60;88.20;;;;;;5011655;28;20199;-55
2022/07/20 04:44:39;;;;;;;7.43;6.67;;;20.60;87.90;;;;;;5011380;28;20202;-56
2022/07/20 04:47:05;;;;;;;7.90;6.60;;;20.60;87.90;;;;;;5008928;28;20228;-59
2022/07/20 04:49:30;;;;;;;6.53;5.93;;;20.70;88.60;;;;;;5010540;28;20237;-59
2022/07/20 04:51:56;;;;;;;7.57;6.17;;;20.80;87.50;;;;;;5012505;28;20218;-59
2022/07/20 04:54:22;;;;;;;6.73;6.07;;;20.90;88.30;;;;;;5009191;28;20187;-59
2022/07/20 04:56:48;;;;;;;7.03;6.43;;;20.90;88.00;;;;;;5011177;28;20198;-58
2022/07/20 04:59:14;;;;;;;7.53;6.60;;;21.00;87.90;;;;;;5008885;28;20179;-59
2022/07/20 05:01:40;;;;;;;9.90;6.50;;;21.10;87.10;;;;;;5008947;28;20193;-60
2022/07/20 05:04:05;;;;;;;7.00;6.40;;;21.20;86.70;;;;;;5005908;28;20444;-59
2022/07/20 05:06:31;;;;;;;6.17;5.67;;;21.20;86.50;;;;;;5008950;28;20237;-59
2022/07/20 05:08:56;;;;;;;9.00;6.67;;;21.20;86.50;;;;;;5008987;28;20183;-59
2022/07/20 05:11:22;;;;;;;11.43;6.50;;;21.30;86.10;;;;;;5007896;28;20179;-59
2022/07/20 05:13:48;;;;;;;9.33;8.37;;;21.30;86.00;;;;;;5005463;28;20205;-59
2022/07/20 05:16:14;;;;;;;7.40;6.70;;;21.30;86.00;;;;;;5006752;28;20687;-59
2022/07/20 05:18:40;;;;;;;8.13;6.77;;;21.40;86.20;;;;;;5007790;28;20187;-58
2022/07/20 05:21:06;;;;;;;9.23;6.60;;;21.50;86.10;;;;;;5008376;28;20223;-59
2022/07/20 05:23:31;;;;;;;7.43;6.70;;;21.60;85.90;;;;;;5010391;28;20241;-59
2022/07/20 05:25:57;;;;;;;9.23;6.80;;;21.80;85.30;;;;;;5009981;28;20210;-58
2022/07/20 05:28:23;;;;;;;8.40;7.43;;;22.00;85.60;;;;;;5009436;28;20448;-59
2022/07/20 05:30:49;;;;;;;7.93;7.13;;;22.10;84.50;;;;;;5010695;28;20266;-59
2022/07/20 05:33:15;;;;;;;8.43;7.60;;;22.20;84.00;;;;;;5010250;28;20206;-59
2022/07/20 05:35:40;;;;;;;6.80;6.17;;;22.30;83.40;;;;;;5006408;28;20491;-59
2022/07/20 05:38:07;;;;;;;7.63;6.93;;;22.30;83.70;;;;;;5006135;28;20190;-58
2022/07/20 05:40:32;;;;;;;7.90;6.80;;;22.40;83.60;;;;;;5009040;28;20721;-59
2022/07/20 05:42:58;;;;;;;9.13;7.70;;;22.40;83.20;;;;;;5009956;28;20556;-58
2022/07/20 05:45:24;;;;;;;7.60;6.67;;;22.50;82.80;;;;;;5004869;28;20200;-59
2022/07/20 05:47:49;;;;;;;9.17;7.57;;;22.60;84.60;;;;;;5008264;28;20246;-59
2022/07/20 05:50:15;;;;;;;8.43;7.53;;;22.80;83.90;;;;;;5009144;28;20186;-60
2022/07/20 05:52:40;;;;;;;8.17;7.20;;;22.80;82.00;;;;;;5007714;28;20238;-62
2022/07/20 05:55:07;;;;;;;8.00;7.30;;;22.90;82.70;;;;;;5006592;28;20717;-63
2022/07/20 05:57:33;;;;;;;8.67;7.77;;;23.10;81.50;;;;;;5006500;28;20687;-62
2022/07/20 05:59:58;;;;;;;9.00;7.33;;;23.20;80.80;;;;;;5007121;28;20438;-62
2022/07/20 06:02:24;;;;;;;7.87;7.00;;;23.40;81.40;;;;;;5006903;28;20644;-62
2022/07/20 06:04:50;;;;;;;9.17;7.50;;;23.50;80.60;;;;;;5007672;28;20329;-62
2022/07/20 06:07:15;;;;;;;8.50;6.70;;;23.70;82.00;;;;;;5008756;28;20206;-61
2022/07/20 06:09:41;;;;;;;7.93;7.13;;;23.90;81.70;;;;;;5005082;28;20639;-61
2022/07/20 06:12:07;;;;;;;7.60;6.90;;;24.10;80.20;;;;;;4997643;28;20635;-62
2022/07/20 06:14:32;;;;;;;7.73;6.93;;;24.20;78.20;;;;;;5009623;28;20214;-60
2022/07/20 06:16:58;;;;;;;8.23;6.90;;;24.30;77.20;;;;;;5008271;28;20975;-61
2022/07/20 06:19:23;;;;;;;9.23;7.20;;;24.50;77.90;;;;;;5007160;28;20620;-61
2022/07/20 06:21:49;;;;;;;8.40;7.37;;;24.60;77.40;;;;;;5006768;28;20286;-61
2022/07/20 06:24:14;;;;;;;9.77;7.00;;;24.80;78.20;;;;;;5009903;28;20861;-61
2022/07/20 06:26:40;;;;;;;9.17;7.13;;;24.90;76.90;;;;;;5007796;28;20212;-61
2022/07/20 06:29:06;;;;;;;9.20;7.10;;;25.00;75.90;;;;;;5007837;28;20183;-61
2022/07/20 06:31:31;;;;;;;7.20;6.50;;;25.10;74.60;;;;;;5008623;28;20268;-62
2022/07/20 06:33:57;;;;;;;13.43;9.87;;;25.30;74.90;;;;;;5008092;28;20634;-61
2022/07/20 06:36:23;;;;;;;8.83;7.93;;;25.50;72.60;;;;;;5006698;28;20212;-61
2022/07/20 06:38:48;;;;;;;11.47;7.10;;;25.60;72.60;;;;;;5009822;28;20303;-61
2022/07/20 06:41:14;;;;;;;10.37;6.80;;;25.80;69.50;;;;;;5009007;28;20193;-61
2022/07/20 06:43:39;;;;;;;9.93;7.40;;;25.80;67.50;;;;;;5013317;28;20208;-62
2022/07/20 06:46:05;;;;;;;13.57;7.30;;;25.90;67.10;;;;;;5006540;28;20683;-57
2022/07/20 06:48:34;;;;;;;8.43;7.37;;;26.00;66.80;;;;;;5009126;28;20217;-58
2022/07/20 06:50:59;;;;;;;10.77;7.60;;;26.30;67.60;;;;;;5009281;28;20480;-58
2022/07/20 06:53:25;;;;;;;8.83;6.50;;;26.60;64.80;;;;;;5012074;28;20445;-58
2022/07/20 06:55:50;;;;;;;9.80;7.20;;;27.30;63.10;;;;;;5012219;28;20248;-58
2022/07/20 06:58:20;;;;;;;7.77;6.90;;;27.90;62.00;;;;;;5002542;28;20571;-57
2022/07/20 07:00:50;;;;;;;7.33;6.43;;;28.20;60.50;;;;;;5009090;28;20214;-58
2022/07/20 07:03:16;;;;;;;7.53;6.83;;;28.30;60.60;;;;;;5013331;28;20505;-58
2022/07/20 07:05:41;;;;;;;11.10;7.07;;;28.50;59.70;;;;;;5011296;28;20481;-58
2022/07/20 07:08:07;;;;;;;7.43;6.73;;;28.70;58.60;;;;;;5012267;28;20183;-58
2022/07/20 07:10:32;;;;;;;8.50;7.60;;;29.30;57.00;;;;;;5013045;28;20530;-58
2022/07/20 07:12:58;;;;;;;11.17;7.80;;;30.90;55.20;;;;;;5010942;28;20189;-59
2022/07/20 07:15:23;;;;;;;10.00;7.33;;;34.00;50.70;;;;;;5012625;28;20187;-59
2022/07/20 07:17:49;;;;;;;8.10;7.40;;;37.00;43.80;;;;;;5010394;28;20263;-59
2022/07/20 07:20:14;;;;;;;9.53;7.80;;;39.50;38.60;;;;;;5011789;28;20237;-59
2022/07/20 07:22:40;;;;;;;9.20;8.40;;;41.80;34.50;;;;;;5012531;28;20219;-60
2022/07/20 07:25:06;;;;;;;8.50;7.80;;;43.80;31.20;;;;;;5012466;28;20996;-59
2022/07/20 07:27:32;;;;;;;8.07;7.40;;;45.60;29.30;;;;;;5013569;28;20209;-59
2022/07/20 07:29:58;;;;;;;7.70;7.07;;;47.10;27.30;;;;;;5008956;28;20453;-59
2022/07/20 07:32:23;;;;;;;7.83;7.30;;;48.30;25.70;;;;;;5009574;28;20193;-59
2022/07/20 07:34:49;;;;;;;7.90;7.10;;;48.00;24.80;;;;;;5011526;28;20194;-60
2022/07/20 07:37:14;;;;;;;8.10;7.50;;;48.80;24.00;;;;;;5012126;28;20214;-59
2022/07/20 07:39:41;;;;;;;8.40;7.60;;;49.20;23.70;;;;;;5011180;28;20671;-59
2022/07/20 07:42:07;;;;;;;8.07;7.30;;;49.70;23.20;;;;;;5012256;28;20203;-60
2022/07/20 07:44:32;;;;;;;10.13;7.17;;;47.70;22.40;;;;;;5012980;28;20445;-59
2022/07/20 07:46:58;;;;;;;8.93;8.10;;;46.30;24.40;;;;;;5011500;28;20305;-59
2022/07/20 07:49:23;;;;;;;9.40;7.33;;;45.30;25.20;;;;;;5009310;28;20183;-59
2022/07/20 07:51:49;;;;;;;8.40;7.67;;;45.60;25.40;;;;;;5011596;28;20317;-59
2022/07/20 07:54:15;;;;;;;8.27;7.57;;;47.20;24.70;;;;;;5017320;28;20189;-59
2022/07/20 07:56:41;;;;;;;8.07;7.17;;;48.60;23.40;;;;;;5014215;28;20211;-60
2022/07/20 07:59:06;;;;;;;8.17;7.50;;;49.40;22.30;;;;;;5010642;28;20198;-59
2022/07/20 08:01:34;;;;;;;7.70;7.00;;;49.00;22.20;;;;;;5027575;28;20437;-59
2022/07/20 08:04:00;;;;;;;7.30;6.90;;;49.20;21.70;;;;;;5011834;28;20571;-59
2022/07/20 08:06:26;;;;;;;8.53;7.77;;;48.80;22.00;;;;;;5023643;28;20493;-59
2022/07/20 08:08:51;;;;;;;8.80;8.10;;;49.10;22.00;;;;;;5011791;28;20942;-59
2022/07/20 08:11:17;;;;;;;8.33;7.53;;;49.90;21.60;;;;;;5011650;28;20175;-60
2022/07/20 08:13:43;;;;;;;8.43;7.37;;;48.00;22.30;;;;;;5011204;28;20194;-58
2022/07/20 08:16:09;;;;;;;7.50;7.00;;;46.90;23.10;;;;;;5011361;28;20457;-59
2022/07/20 08:18:34;;;;;;;8.80;8.00;;;47.70;23.00;;;;;;5012296;28;20187;-58
2022/07/20 08:21:00;;;;;;;7.83;7.23;;;48.30;22.50;;;;;;5010453;28;20727;-57
2022/07/20 08:23:25;;;;;;;9.03;7.03;;;48.80;22.80;;;;;;5011556;28;20218;-58
2022/07/20 08:25:51;;;;;;;7.90;7.13;;;47.80;22.80;;;;;;5007765;28;20207;-58
2022/07/20 08:28:20;;;;;;;7.30;6.67;;;48.60;22.90;;;;;;5009948;28;20253;-58
2022/07/20 08:30:48;;;;;;;7.93;6.90;;;49.10;22.40;;;;;;5010733;28;20844;-58
2022/07/20 08:33:13;;;;;;;8.43;7.77;;;47.60;22.60;;;;;;5008392;28;20432;-59
2022/07/20 08:35:40;;;;;;;8.10;7.17;;;47.50;23.10;;;;;;5010619;28;20445;-58
2022/07/20 08:38:06;;;;;;;7.63;7.03;;;47.50;22.60;;;;;;5011383;28;20183;-58
2022/07/20 08:40:32;;;;;;;8.10;7.40;;;48.80;22.30;;;;;;5026669;28;20442;-58
2022/07/20 08:42:58;;;;;;;8.70;7.83;;;48.50;21.80;;;;;;5011054;28;20536;-59
2022/07/20 08:45:25;;;;;;;8.50;7.17;;;46.90;22.20;;;;;;5010829;28;20438;-59
2022/07/20 08:47:51;;;;;;;8.13;7.30;;;44.90;23.20;;;;;;5008755;28;20477;-60
2022/07/20 08:50:22;;;;;;;7.53;6.87;;;45.90;23.90;;;;;;5005188;28;20441;-60
2022/07/20 08:52:48;;;;;;;6.90;6.40;;;46.60;23.40;;;;;;5011108;28;20434;-60
2022/07/20 08:55:14;;;;;;;8.50;7.27;;;47.40;22.60;;;;;;5010665;28;20980;-59
2022/07/20 08:57:40;;;;;;;7.73;7.23;;;48.40;22.40;;;;;;5010697;28;20542;-60
2022/07/20 09:00:06;;;;;;;9.30;7.47;;;48.50;22.00;;;;;;5010543;28;20495;-60
2022/07/20 09:03:01;;;;;;;10.03;8.57;;;48.50;22.00;;;;;;5011211;28;20214;-60
2022/07/20 09:05:28;;;;;;;8.27;7.60;;;49.20;21.90;;;;;;5009427;28;20441;-60
2022/07/20 09:07:55;;;;;;;9.00;7.07;;;47.80;22.00;;;;;;5009895;28;20465;-60
2022/07/20 09:10:27;;;;;;;7.83;7.07;;;48.40;21.80;;;;;;5005570;28;20453;-60
2022/07/20 09:13:00;;;;;;;7.50;7.00;;;48.20;22.30;;;;;;5010028;28;20429;-59
2022/07/20 09:15:31;;;;;;;7.87;7.17;;;48.50;21.50;;;;;;5010230;28;20434;-59
2022/07/20 09:18:08;;;;;;;8.33;7.00;;;47.20;22.10;;;;;;5010768;28;20803;-60
2022/07/20 09:20:35;;;;;;;7.57;7.00;;;47.80;22.50;;;;;;5009733;28;20465;-60
2022/07/20 09:23:14;;;;;;;7.20;6.70;;;48.00;22.00;;;;;;5009393;28;20458;-60
2022/07/20 09:25:57;;;;;;;7.67;6.77;;;48.50;21.90;;;;;;5010587;28;20430;-60
2022/07/20 09:28:36;;;;;;;8.23;7.63;;;48.10;22.00;;;;;;5008359;28;20453;-60
2022/07/20 09:31:08;;;;;;;8.03;7.40;;;47.40;22.60;;;;;;5021936;28;20437;-60
2022/07/20 09:33:33;;;;;;;10.40;8.37;;;48.30;22.30;;;;;;5008663;28;20524;-59
2022/07/20 09:36:03;;;;;;;8.87;7.30;;;48.50;21.80;;;;;;5009675;28;21278;-59
2022/07/20 09:38:34;;;;;;;10.30;7.20;;;47.80;20.60;;;;;;5010569;28;20183;-59
2022/07/20 09:41:02;;;;;;;8.97;7.50;;;47.10;20.70;;;;;;5010207;28;20437;-60
2022/07/20 09:43:34;;;;;;;6.77;6.10;;;47.70;21.80;;;;;;5010233;28;20517;-59
2022/07/20 09:46:13;;;;;;;7.83;7.23;;;47.90;20.80;;;;;;5010087;28;20487;-59
2022/07/20 09:48:44;;;;;;;7.73;6.97;;;46.90;20.90;;;;;;5007468;28;20445;-60
2022/07/20 09:51:29;;;;;;;7.33;6.70;;;47.10;21.20;;;;;;5006913;28;20446;-60
2022/07/20 09:54:03;;;;;;;13.73;9.20;;;48.10;21.00;;;;;;5009765;28;20436;-60
2022/07/20 09:56:29;;;;;;;7.37;6.87;;;48.30;20.80;;;;;;5009825;28;20475;-59
2022/07/20 09:58:57;;;;;;;7.73;7.03;;;48.50;20.70;;;;;;5009698;28;20953;-59
2022/07/20 10:01:26;;;;;;;8.17;7.47;;;47.20;21.10;;;;;;5010561;28;20438;-60
2022/07/20 10:03:53;;;;;;;7.63;6.93;;;47.80;21.00;;;;;;5010047;28;20493;-59
2022/07/20 10:06:21;;;;;;;9.53;7.40;;;48.10;20.70;;;;;;5007185;28;20520;-60
2022/07/20 10:08:47;;;;;;;8.50;6.47;;;48.30;20.90;;;;;;5010159;28;20480;-59
2022/07/20 10:11:14;;;;;;;8.03;7.27;;;48.70;20.40;;;;;;5009942;28;20488;-59
2022/07/20 10:13:42;;;;;;;8.33;6.90;;;49.00;20.20;;;;;;5009519;28;20438;-60
2022/07/20 10:16:31;;;;;;;8.00;7.30;;;48.10;20.20;;;;;;5006471;28;20503;-59
2022/07/20 10:18:57;;;;;;;8.67;7.73;;;47.80;20.70;;;;;;5010798;28;21353;-60
2022/07/20 10:21:31;;;;;;;9.40;8.40;;;48.20;21.00;;;;;;5009728;28;20473;-59
2022/07/20 10:24:14;;;;;;;7.43;6.93;;;46.80;21.30;;;;;;5011428;28;20476;-59
2022/07/20 10:26:40;;;;;;;7.80;7.00;;;45.90;22.10;;;;;;5010880;28;20441;-59
2022/07/20 10:29:06;;;;;;;8.00;7.40;;;45.20;22.20;;;;;;5012952;28;20525;-59
2022/07/20 10:31:49;;;;;;;8.53;7.80;;;43.70;23.00;;;;;;5014059;28;20194;-59
2022/07/20 10:34:34;;;;;;;8.07;7.47;;;42.70;24.60;;;;;;5013306;28;20651;-59
2022/07/20 10:37:23;;;;;;;7.57;6.90;;;42.00;25.60;;;;;;5013245;28;20450;-59
2022/07/20 10:39:49;;;;;;;8.93;8.23;;;41.10;26.10;;;;;;5008679;28;20452;-59
2022/07/20 10:42:34;;;;;;;8.43;7.30;;;40.50;26.70;;;;;;5013279;28;20461;-59
2022/07/20 10:45:20;;;;;;;8.50;7.70;;;39.70;27.80;;;;;;5012818;28;20549;-59
2022/07/20 10:47:56;;;;;;;7.67;6.93;;;39.50;28.20;;;;;;5011432;28;20514;-59
2022/07/20 10:50:31;;;;;;;8.03;7.23;;;39.00;28.30;;;;;;5013747;28;20444;-59
2022/07/20 10:53:23;;;;;;;10.00;7.30;;;39.10;28.30;;;;;;5013743;28;20425;-59
2022/07/20 10:55:58;;;;;;;8.10;7.40;;;39.00;28.80;;;;;;5011099;28;20436;-59
2022/07/20 10:58:26;;;;;;;9.87;7.80;;;39.10;28.90;;;;;;5008185;28;21111;-58
2022/07/20 11:00:55;;;;;;;7.27;6.50;;;39.30;29.10;;;;;;5010997;28;20974;-59
2022/07/20 11:03:27;;;;;;;8.40;7.77;;;39.00;29.00;;;;;;5010294;28;20513;-59
2022/07/20 11:06:06;;;;;;;7.80;7.03;;;39.00;28.80;;;;;;5012107;28;20438;-59
2022/07/20 11:08:33;;;;;;;8.33;7.63;;;39.70;28.90;;;;;;5013417;28;20584;-59
2022/07/20 11:10:59;;;;;;;10.93;7.73;;;40.80;27.50;;;;;;5012605;28;20437;-59
2022/07/20 11:13:25;;;;;;;8.33;7.63;;;41.90;26.70;;;;;;5012255;28;20487;-59
2022/07/20 11:15:53;;;;;;;7.97;7.37;;;43.50;25.60;;;;;;5011315;28;20183;-59
2022/07/20 11:18:25;;;;;;;7.63;6.93;;;44.00;25.00;;;;;;5010159;28;20523;-60
2022/07/20 11:21:01;;;;;;;7.80;7.30;;;44.70;24.40;;;;;;5012304;28;20511;-59
2022/07/20 11:23:37;;;;;;;8.00;7.20;;;45.80;23.70;;;;;;5012613;28;20858;-59
2022/07/20 11:26:03;;;;;;;7.77;7.17;;;44.70;23.60;;;;;;5009008;28;20449;-59
2022/07/20 11:28:32;;;;;;;8.63;7.80;;;44.60;24.30;;;;;;5028016;28;20434;-60
2022/07/20 11:30:59;;;;;;;9.77;8.10;;;44.70;24.10;;;;;;5012158;28;20189;-60
2022/07/20 11:33:31;;;;;;;9.87;7.30;;;45.50;24.00;;;;;;5005252;28;20568;-59
2022/07/20 11:36:09;;;;;;;8.67;7.87;;;45.20;23.30;;;;;;5011683;28;20466;-59
2022/07/20 11:38:40;;;;;;;10.03;7.73;;;45.30;23.40;;;;;;5012795;28;20449;-60
2022/07/20 11:41:12;;;;;;;7.90;7.20;;;44.40;23.50;;;;;;5000470;28;20532;-60
2022/07/20 11:43:38;;;;;;;9.03;8.30;;;44.30;23.60;;;;;;5008122;28;20472;-59
2022/07/20 11:46:09;;;;;;;8.27;7.67;;;44.50;24.60;;;;;;5008739;28;20530;-59
2022/07/20 11:48:34;;;;;;;8.90;8.10;;;42.80;25.40;;;;;;5009585;28;20429;-59
2022/07/20 11:51:00;;;;;;;8.50;8.00;;;41.60;26.30;;;;;;5007075;28;20452;-59
2022/07/20 11:53:36;;;;;;;8.70;7.80;;;42.20;26.80;;;;;;5010516;28;20680;-59
2022/07/20 11:56:05;;;;;;;9.57;8.77;;;42.10;26.70;;;;;;5004268;28;20214;-59
2022/07/20 11:58:36;;;;;;;8.10;7.50;;;42.00;26.60;;;;;;5012127;28;20981;-59
2022/07/20 12:01:04;;;;;;;9.30;8.60;;;41.70;27.00;;;;;;5010548;28;20496;-59
2022/07/20 12:03:33;;;;;;;9.23;8.33;;;41.40;27.30;;;;;;5011611;28;20469;-59
2022/07/20 12:06:02;;;;;;;10.10;8.70;;;40.80;27.80;;;;;;5010236;28;20766;-59
2022/07/20 12:08:27;;;;;;;9.87;9.07;;;40.40;28.20;;;;;;5010664;28;20959;-58
2022/07/20 12:10:55;;;;;;;11.20;9.13;;;39.70;29.20;;;;;;5011491;28;20533;-58
2022/07/20 12:13:21;;;;;;;9.10;8.50;;;39.20;29.80;;;;;;5010323;28;20449;-59
2022/07/20 12:16:04;;;;;;;10.90;9.50;;;38.90;30.30;;;;;;5005488;28;20454;-59
2022/07/20 12:18:34;;;;;;;10.33;9.53;;;38.60;30.10;;;;;;5010759;28;20445;-58
2022/07/20 12:21:01;;;;;;;10.73;9.87;;;38.40;30.90;;;;;;5007625;28;20536;-58
2022/07/20 12:23:27;;;;;;;10.77;9.30;;;38.20;31.10;;;;;;5010642;28;20925;-58
2022/07/20 12:25:53;;;;;;;9.00;8.40;;;37.90;31.30;;;;;;5010926;28;20425;-58
2022/07/20 12:28:30;;;;;;;8.90;8.30;;;37.70;31.60;;;;;;5011074;28;20445;-58
2022/07/20 12:31:13;;;;;;;10.87;9.77;;;37.50;31.70;;;;;;5011536;28;20247;-58
2022/07/20 12:33:58;;;;;;;10.33;9.53;;;37.30;32.30;;;;;;5011720;28;20443;-58
2022/07/20 12:36:33;;;;;;;10.60;9.70;;;37.20;33.10;;;;;;5007096;28;20996;-59
2022/07/20 12:39:00;;;;;;;10.27;9.37;;;37.20;34.20;;;;;;5011295;28;20429;-58
2022/07/20 12:41:25;;;;;;;10.13;9.33;;;37.10;34.00;;;;;;5011054;28;20513;-58
2022/07/20 12:43:51;;;;;;;11.47;10.30;;;36.80;33.90;;;;;;5010629;28;20564;-58
2022/07/20 12:46:17;;;;;;;11.57;10.13;;;36.40;34.20;;;;;;5010036;28;20222;-58
2022/07/20 12:48:46;;;;;;;11.87;10.53;;;36.40;35.30;;;;;;5011037;28;20194;-57
2022/07/20 12:51:12;;;;;;;12.87;11.60;;;36.40;35.40;;;;;;5011213;28;20195;-58